Strona główna
METAR-TAF:

METAR-TAF

Lotnisko :

Port lotniczy Larnaka

Larnaka, Cypr

Szerokość geograficzna: 34-53N, Długość geograficzna: 033-38E, wysokość: 2 m

Aktualna obserwacja pogody

Raport powstał 14 minut temu, godzina 03:30 UTC
Wiatr 2 kt od zachód
Temperatura 19°C
Wilgotność 78%
Ciśnienie 1010 hPa
Widzialność 10 km lub więcej
Brak chmur poniżej 1500 m i brak chmur cumulonimbus

METAR: LCLK 150330Z 28002KT CAVOK 19/15 Q1010 NOSIG

czas: 06:44 (03:44 UTC)

Prognoza

Raport powstał 4 godziny i 14 minut temu, godzina 23:30 UTC
Prognoza ważna od 15 godzina 00 UTC do 15 godzina 24 UTC
Wiatr 7 kt od północny zachód
Widzialność 10 km lub więcej
Rozproszone chmury na wysokości 2500 ft
Stopniowe zmiany
od 15 godzina 08 UTC do 15 godzina 12 UTC
Wiatr 17 kt od południowy zachód
Stopniowe zmiany
od 15 godzina 18 UTC do 15 godzina 22 UTC
Wiatr 7 kt od północny zachód

TAF: LCLK 142330Z 1500/1524 32007KT 9999 SCT025 BECMG 1508/1512 22017KT BECMG 1518/1522 31007KT

Obserwacja i prognoza pogody dla ponad 4000 lotnisk (raport METAR i TAF).

Dostępne stacje oznaczono żółtymi i czerwonymi punktami na mapie.

Najedź kursorem aby zobaczyć nazwę stacji.

Kliknij aby zobaczyć obserwacje i prognozy pogody.

Aby zmienić mapę: kliknij na zielony przycisk z czarnym krzyżykiem, aby powiększyć; na zielony przycisk z myślnikiem, aby pomniejszyć; na zielone strzałki, aby przejść do map sąsiednich.


METAR-TAF: